Time,TemperatureF,DewpointF,PressureIn,WindDirection,WindDirectionDegrees,WindSpeedMPH,WindSpeedGustMPH,Humidity,HourlyPrecipIn,Conditions,Clouds,dailyrainin,SolarRadiationWatts/m^2,SoftwareType,DateUTC
2013-08-11 00:03:00,66.4,54.3,29.94,NNW,338,6.9,6.9,65,0.00,CLR,,0.00,0.0,WeatherDisplay:10.37,2013-08-10 22:03:00,
2013-08-11 00:08:00,66.2,54.1,29.94,NW,315,5.8,5.8,65,0.00,CLR,,0.00,0.0,WeatherDisplay:10.37,2013-08-10 22:08:00,
2013-08-11 00:13:00,66.2,54.1,29.94,WNW,292,5.8,5.8,65,0.00,CLR,,0.00,0.0,WeatherDisplay:10.37,2013-08-10 22:13:00,
2013-08-11 00:18:00,66.0,54.3,29.94,NNW,338,5.8,5.8,66,0.00,CLR,,0.00,0.0,WeatherDisplay:10.37,2013-08-10 22:18:00,
2013-08-11 00:23:00,65.8,54.2,29.94,WNW,292,3.5,3.5,66,0.00,CLR,,0.00,0.0,WeatherDisplay:10.37,2013-08-10 22:23:00,
2013-08-11 00:28:00,65.8,54.2,29.94,WNW,292,5.8,5.8,66,0.00,CLR,,0.00,0.0,WeatherDisplay:10.37,2013-08-10 22:28:00,
2013-08-11 00:33:00,65.7,54.0,29.94,WNW,292,4.6,4.6,66,0.00,CLR,,0.00,0.0,WeatherDisplay:10.37,2013-08-10 22:33:00,
2013-08-11 00:38:00,65.7,54.0,29.94,North,0,5.8,5.8,66,0.00,CLR,,0.00,0.0,WeatherDisplay:10.37,2013-08-10 22:38:00,
2013-08-11 00:43:00,65.7,54.0,29.94,NNW,338,5.8,5.8,66,0.00,CLR,,0.00,0.0,WeatherDisplay:10.37,2013-08-10 22:43:00,
2013-08-11 00:48:00,65.7,54.0,29.94,WNW,292,4.6,4.6,66,0.00,CLR,,0.00,0.0,WeatherDisplay:10.37,2013-08-10 22:48:00,
2013-08-11 00:53:00,65.5,53.8,29.94,NW,315,3.8,3.8,66,0.00,CLR,,0.00,0.0,WeatherDisplay:10.37,2013-08-10 22:53:00,
2013-08-11 00:58:00,65.5,53.8,29.94,NNW,338,4.6,4.6,66,0.00,CLR,,0.00,0.0,WeatherDisplay:10.37,2013-08-10 22:58:00,
2013-08-11 01:03:00,65.5,53.8,29.94,NW,315,4.6,4.6,66,0.00,CLR,,0.00,0.0,WeatherDisplay:10.37,2013-08-10 23:03:00,
2013-08-11 01:08:00,65.5,53.8,29.94,NNW,338,5.6,5.6,66,0.00,CLR,,0.00,0.0,WeatherDisplay:10.37,2013-08-10 23:08:00,
2013-08-11 01:13:00,65.5,53.8,29.94,WNW,292,4.6,4.6,66,0.00,CLR,,0.00,0.0,WeatherDisplay:10.37,2013-08-10 23:13:00,
2013-08-11 01:18:00,65.3,53.6,29.94,WNW,292,3.5,3.5,66,0.00,CLR,,0.00,0.0,WeatherDisplay:10.37,2013-08-10 23:18:00,
2013-08-11 01:23:00,65.3,53.6,29.94,NNW,338,3.5,3.5,66,0.00,CLR,,0.00,0.0,WeatherDisplay:10.37,2013-08-10 23:23:00,
2013-08-11 01:24:00,65.3,53.6,29.94,NW,315,2.3,2.3,66,0.00,CLR,,0.00,0.0,WeatherDisplay:10.37,2013-08-10 23:24:00,
2013-08-11 01:29:00,65.3,54.1,29.94,NW,315,5.8,5.8,67,0.00,CLR,,0.00,0.0,WeatherDisplay:10.37,2013-08-10 23:29:00,
2013-08-11 01:34:00,65.3,54.1,29.94,NNW,338,3.5,3.5,67,0.00,CLR,,0.00,0.0,WeatherDisplay:10.37,2013-08-10 23:34:00,
2013-08-11 01:39:00,65.3,54.1,29.94,NNW,338,3.5,3.5,67,0.00,CLR,,0.00,0.0,WeatherDisplay:10.37,2013-08-10 23:39:00,
2013-08-11 01:44:00,65.3,54.1,29.94,WNW,292,4.6,4.6,67,0.00,CLR,,0.00,0.0,WeatherDisplay:10.37,2013-08-10 23:44:00,
2013-08-11 01:49:00,65.3,54.1,29.94,WNW,292,3.5,3.5,67,0.00,CLR,,0.00,0.0,WeatherDisplay:10.37,2013-08-10 23:49:00,
2013-08-11 01:54:00,65.3,54.1,29.94,NNE,22,3.5,3.5,67,0.00,CLR,,0.00,0.0,WeatherDisplay:10.37,2013-08-10 23:54:00,
2013-08-11 01:59:00,65.3,54.5,29.94,NW,315,2.4,2.4,68,0.00,CLR,,0.00,0.0,WeatherDisplay:10.37,2013-08-10 23:59:00,
2013-08-11 02:04:00,65.5,54.6,29.94,NNW,338,4.0,4.0,68,0.00,CLR,,0.00,0.0,WeatherDisplay:10.37,2013-08-11 00:04:00,
2013-08-11 02:09:00,65.5,54.6,29.94,WNW,292,4.6,4.6,68,0.00,CLR,,0.00,0.0,WeatherDisplay:10.37,2013-08-11 00:09:00,
2013-08-11 02:14:00,65.5,54.6,29.94,NNW,338,4.6,4.6,68,0.00,CLR,,0.00,0.0,WeatherDisplay:10.37,2013-08-11 00:14:00,
2013-08-11 02:19:00,65.5,54.2,29.94,NNW,338,5.8,5.8,67,0.00,CLR,,0.00,0.0,WeatherDisplay:10.37,2013-08-11 00:19:00,
2013-08-11 02:24:00,65.7,54.4,29.94,NNW,338,3.5,3.5,67,0.00,CLR,,0.00,0.0,WeatherDisplay:10.37,2013-08-11 00:24:00,
2013-08-11 02:29:00,65.7,54.4,29.94,WNW,292,4.6,4.6,67,0.00,CLR,,0.00,0.0,WeatherDisplay:10.37,2013-08-11 00:29:00,
2013-08-11 02:34:00,65.7,54.4,29.94,WNW,292,4.6,4.6,67,0.00,CLR,,0.00,0.0,WeatherDisplay:10.37,2013-08-11 00:34:00,
2013-08-11 02:39:00,65.7,54.4,29.97,WNW,292,5.8,5.8,67,0.00,CLR,,0.00,0.0,WeatherDisplay:10.37,2013-08-11 00:39:00,
2013-08-11 02:44:00,65.7,54.4,29.97,NNW,338,3.5,3.5,67,0.00,CLR,,0.00,0.0,WeatherDisplay:10.37,2013-08-11 00:44:00,
2013-08-11 02:49:00,65.8,54.6,29.97,WNW,292,5.8,5.8,67,0.00,CLR,,0.00,0.0,WeatherDisplay:10.37,2013-08-11 00:49:00,
2013-08-11 02:54:00,65.8,54.6,29.94,NW,315,3.6,3.6,67,0.00,CLR,,0.00,0.0,WeatherDisplay:10.37,2013-08-11 00:54:00,
2013-08-11 02:59:00,65.8,54.6,29.94,WNW,292,3.5,3.5,67,0.00,CLR,,0.00,0.0,WeatherDisplay:10.37,2013-08-11 00:59:00,
2013-08-11 03:04:00,65.8,54.6,29.94,NW,315,4.6,4.6,67,0.00,CLR,,0.00,0.0,WeatherDisplay:10.37,2013-08-11 01:04:00,
2013-08-11 03:09:00,65.8,54.6,29.94,WNW,292,3.5,3.5,67,0.00,CLR,,0.00,0.0,WeatherDisplay:10.37,2013-08-11 01:09:00,
2013-08-11 03:14:00,65.8,54.6,29.94,NW,315,5.8,5.8,67,0.00,CLR,,0.00,0.0,WeatherDisplay:10.37,2013-08-11 01:14:00,
2013-08-11 03:19:00,65.8,54.6,29.94,NNW,338,3.5,3.6,67,0.00,CLR,,0.00,0.0,WeatherDisplay:10.37,2013-08-11 01:19:00,
2013-08-11 03:24:00,65.8,54.6,29.97,NNW,338,4.6,4.6,67,0.00,CLR,,0.00,0.0,WeatherDisplay:10.37,2013-08-11 01:24:00,
2013-08-11 03:29:00,65.8,54.6,29.97,WNW,292,4.6,4.6,67,0.00,CLR,,0.00,0.0,WeatherDisplay:10.37,2013-08-11 01:29:00,
2013-08-11 03:34:00,65.8,54.6,29.97,NNW,338,4.9,4.9,67,0.00,CLR,,0.00,0.0,WeatherDisplay:10.37,2013-08-11 01:34:00,
2013-08-11 03:39:00,65.8,54.6,29.94,NNE,22,3.5,3.5,67,0.00,CLR,,0.00,0.0,WeatherDisplay:10.37,2013-08-11 01:39:00,
2013-08-11 03:44:00,65.8,54.6,29.94,NW,315,3.5,3.5,67,0.00,CLR,,0.00,0.0,WeatherDisplay:10.37,2013-08-11 01:44:00,
2013-08-11 03:49:00,65.8,54.6,29.94,NNW,338,2.3,2.3,67,0.00,CLR,,0.00,0.0,WeatherDisplay:10.37,2013-08-11 01:49:00,
2013-08-11 03:54:00,65.8,54.6,29.94,NNW,338,2.3,2.3,67,0.00,CLR,,0.00,0.0,WeatherDisplay:10.37,2013-08-11 01:54:00,
2013-08-11 03:59:00,65.8,54.6,29.94,NNW,338,2.4,2.4,67,0.00,CLR,,0.00,0.0,WeatherDisplay:10.37,2013-08-11 01:59:00,
2013-08-11 04:04:00,65.8,54.2,29.94,WNW,292,3.5,3.5,66,0.00,CLR,,0.00,0.0,WeatherDisplay:10.37,2013-08-11 02:04:00,
2013-08-11 04:09:00,65.8,54.2,29.94,NNW,338,1.2,0.0,66,0.00,CLR,,0.00,0.0,WeatherDisplay:10.37,2013-08-11 02:09:00,
2013-08-11 04:14:00,65.7,54.0,29.94,NNW,338,2.3,2.3,66,0.00,CLR,,0.00,0.0,WeatherDisplay:10.37,2013-08-11 02:14:00,
2013-08-11 04:19:00,65.7,54.4,29.94,NNW,338,2.3,2.3,67,0.00,CLR,,0.00,0.0,WeatherDisplay:10.37,2013-08-11 02:19:00,
2013-08-11 04:24:00,65.5,54.2,29.94,NNW,338,2.9,2.9,67,0.00,CLR,,0.00,0.0,WeatherDisplay:10.37,2013-08-11 02:24:00,
2013-08-11 04:29:00,65.1,53.9,29.94,West,270,3.5,3.5,67,0.00,CLR,,0.00,0.0,WeatherDisplay:10.37,2013-08-11 02:29:00,
2013-08-11 04:34:00,65.1,53.9,29.94,WNW,292,5.8,5.8,67,0.00,CLR,,0.00,0.0,WeatherDisplay:10.37,2013-08-11 02:34:00,
2013-08-11 04:39:00,64.9,53.7,29.97,NNW,338,4.6,4.6,67,0.00,CLR,,0.00,0.0,WeatherDisplay:10.37,2013-08-11 02:39:00,
2013-08-11 04:44:00,64.8,53.5,29.97,WNW,292,2.3,2.3,67,0.00,CLR,,0.00,0.0,WeatherDisplay:10.37,2013-08-11 02:44:00,
2013-08-11 04:50:00,64.6,53.8,29.97,WNW,292,3.5,3.5,68,0.00,CLR,,0.00,0.0,WeatherDisplay:10.37,2013-08-11 02:50:00,
2013-08-11 04:55:00,64.6,53.8,29.94,NW,315,0.0,0.0,68,0.00,CLR,,0.00,0.0,WeatherDisplay:10.37,2013-08-11 02:55:00,
2013-08-11 05:01:00,64.4,53.6,29.94,WNW,292,3.5,3.5,68,0.00,CLR,,0.00,0.0,WeatherDisplay:10.37,2013-08-11 03:01:00,
2013-08-11 05:06:00,64.4,53.6,29.94,NNW,338,3.5,3.5,68,0.00,OVC,,0.00,0.0,WeatherDisplay:10.37,2013-08-11 03:06:00,
2013-08-11 05:12:00,64.6,53.8,29.94,NW,315,3.5,3.5,68,0.00,OVC,,0.00,0.0,WeatherDisplay:10.37,2013-08-11 03:12:00,
2013-08-11 05:17:00,64.6,54.2,29.94,North,0,3.5,3.5,69,0.00,OVC,,0.00,0.0,WeatherDisplay:10.37,2013-08-11 03:17:00,
2013-08-11 05:22:00,64.6,54.2,29.94,NW,315,4.6,4.6,69,0.00,OVC,,0.00,0.0,WeatherDisplay:10.37,2013-08-11 03:22:00,
2013-08-11 05:27:00,64.6,54.2,29.94,WSW,248,3.5,3.5,69,0.00,OVC,,0.00,0.0,WeatherDisplay:10.37,2013-08-11 03:27:00,
2013-08-11 05:32:00,64.6,54.2,29.94,West,270,3.5,3.5,69,0.00,OVC,,0.00,0.0,WeatherDisplay:10.37,2013-08-11 03:32:00,
2013-08-11 05:38:00,64.6,54.2,29.97,NNW,338,3.5,3.5,69,0.00,OVC,,0.00,0.0,WeatherDisplay:10.37,2013-08-11 03:38:00,
2013-08-11 05:43:00,64.6,54.2,29.97,NNW,338,3.5,3.5,69,0.00,OVC,,0.00,0.0,WeatherDisplay:10.37,2013-08-11 03:43:00,
2013-08-11 05:48:00,64.6,54.2,29.97,NNW,338,2.3,2.3,69,0.00,OVC,,0.00,1.3,WeatherDisplay:10.37,2013-08-11 03:48:00,
2013-08-11 05:53:00,64.6,54.2,29.97,NNW,338,2.3,2.3,69,0.00,OVC,,0.00,3.6,WeatherDisplay:10.37,2013-08-11 03:53:00,
2013-08-11 05:59:00,64.6,54.2,29.97,NNW,338,2.3,2.3,69,0.00,OVC,,0.00,6.1,WeatherDisplay:10.37,2013-08-11 03:59:00,
2013-08-11 06:01:00,64.6,54.2,29.97,NW,315,2.3,2.3,69,0.00,OVC,,0.00,6.9,WeatherDisplay:10.37,2013-08-11 04:01:00,
2013-08-11 06:06:00,64.6,54.2,29.97,NNW,338,3.5,3.5,69,0.00,OVC,,0.00,9.9,WeatherDisplay:10.37,2013-08-11 04:06:00,
2013-08-11 06:11:00,64.4,54.0,29.97,WNW,292,3.5,3.6,69,0.00,OVC,,0.00,12.4,WeatherDisplay:10.37,2013-08-11 04:11:00,
2013-08-11 06:16:00,64.4,54.0,29.97,NNW,338,3.5,3.5,69,0.00,OVC,,0.00,14.8,WeatherDisplay:10.37,2013-08-11 04:16:00,
2013-08-11 06:21:00,64.2,53.8,29.97,NNW,338,3.5,3.5,69,0.00,OVC,,0.00,17.5,WeatherDisplay:10.37,2013-08-11 04:21:00,
2013-08-11 06:26:00,64.2,54.2,29.97,NNW,338,4.6,4.6,70,0.00,OVC,,0.00,20.0,WeatherDisplay:10.37,2013-08-11 04:26:00,
2013-08-11 06:31:00,64.0,53.7,29.97,NW,315,4.6,4.6,69,0.00,OVC,,0.00,22.6,WeatherDisplay:10.37,2013-08-11 04:31:00,
2013-08-11 06:36:00,64.0,54.1,29.97,NNW,338,4.3,4.3,70,0.00,OVC,,0.00,25.2,WeatherDisplay:10.37,2013-08-11 04:36:00,
2013-08-11 06:41:00,64.0,54.1,29.97,WNW,292,3.5,3.5,70,0.00,OVC,,0.00,27.9,WeatherDisplay:10.37,2013-08-11 04:41:00,
2013-08-11 06:46:00,64.2,54.2,29.97,NW,315,3.5,3.5,70,0.00,OVC,,0.00,30.5,WeatherDisplay:10.37,2013-08-11 04:46:00,
2013-08-11 06:51:00,64.2,54.2,30.00,NNW,338,2.4,2.4,70,0.00,OVC,,0.00,33.2,WeatherDisplay:10.37,2013-08-11 04:51:00,
2013-08-11 06:56:00,64.2,54.2,30.00,NNW,338,4.6,4.6,70,0.00,OVC,,0.00,35.8,WeatherDisplay:10.37,2013-08-11 04:56:00,
2013-08-11 07:01:00,64.4,54.0,30.00,WNW,292,3.6,3.6,69,0.00,OVC,,0.00,38.6,WeatherDisplay:10.37,2013-08-11 05:01:00,
2013-08-11 07:06:00,64.6,54.2,30.00,NNW,338,4.6,4.6,69,0.00,OVC,,0.00,41.3,WeatherDisplay:10.37,2013-08-11 05:06:00,
2013-08-11 07:12:00,64.6,54.2,30.00,NNE,22,3.8,3.8,69,0.00,OVC,,0.00,44.1,WeatherDisplay:10.37,2013-08-11 05:12:00,
2013-08-11 07:17:00,64.6,54.2,30.00,WNW,292,3.5,3.5,69,0.00,OVC,,0.00,46.9,WeatherDisplay:10.37,2013-08-11 05:17:00,
2013-08-11 07:22:00,64.6,54.2,30.00,WNW,292,4.6,4.6,69,0.00,OVC,,0.00,49.5,WeatherDisplay:10.37,2013-08-11 05:22:00,
2013-08-11 07:27:00,64.8,54.3,30.00,WNW,292,4.3,4.3,69,0.00,OVC,,0.00,53.0,WeatherDisplay:10.37,2013-08-11 05:27:00,
2013-08-11 07:32:00,64.9,54.5,30.00,WNW,292,3.5,3.5,69,0.00,OVC,,0.00,55.8,WeatherDisplay:10.37,2013-08-11 05:32:00,
2013-08-11 07:38:00,65.1,54.3,29.97,WNW,292,3.5,3.5,68,0.00,OVC,,0.00,58.6,WeatherDisplay:10.37,2013-08-11 05:38:00,
2013-08-11 07:43:00,65.5,54.6,29.97,NNW,338,3.5,3.5,68,0.00,OVC,,0.00,61.9,WeatherDisplay:10.37,2013-08-11 05:43:00,
2013-08-11 07:48:00,65.8,54.6,29.97,NNW,338,3.3,3.3,67,0.00,OVC,,0.00,64.7,WeatherDisplay:10.37,2013-08-11 05:48:00,
2013-08-11 07:54:00,66.2,54.1,29.97,NW,315,4.6,4.6,65,0.00,OVC,,0.00,67.7,WeatherDisplay:10.37,2013-08-11 05:54:00,
2013-08-11 07:59:00,66.6,54.0,29.97,NW,315,5.8,5.8,64,0.00,OVC,,0.00,70.5,WeatherDisplay:10.37,2013-08-11 05:59:00,
2013-08-11 08:04:00,66.7,53.7,29.97,NNW,338,5.9,5.9,63,0.00,OVC,,0.00,73.3,WeatherDisplay:10.37,2013-08-11 06:04:00,
2013-08-11 08:09:00,66.7,53.7,30.00,NW,315,2.4,2.6,63,0.00,OVC,,0.00,76.6,WeatherDisplay:10.37,2013-08-11 06:09:00,
2013-08-11 08:14:00,66.7,53.7,30.00,NNE,22,3.1,3.1,63,0.00,OVC,,0.00,79.4,WeatherDisplay:10.37,2013-08-11 06:14:00,
2013-08-11 08:20:00,66.7,52.9,30.00,NNW,338,3.5,3.5,61,0.00,OVC,,0.00,82.8,WeatherDisplay:10.37,2013-08-11 06:20:00,
2013-08-11 08:25:00,66.9,53.0,30.00,NNW,338,4.6,4.6,61,0.00,OVC,,0.00,85.6,WeatherDisplay:10.37,2013-08-11 06:25:00,
2013-08-11 08:30:00,66.9,53.0,30.00,NNW,338,4.6,4.6,61,0.00,OVC,,0.00,88.4,WeatherDisplay:10.37,2013-08-11 06:30:00,
2013-08-11 08:36:00,66.9,53.0,30.00,NNE,22,6.2,6.2,61,0.00,OVC,,0.00,91.9,WeatherDisplay:10.37,2013-08-11 06:36:00,
2013-08-11 08:42:00,66.9,52.6,30.00,NNW,338,5.8,5.8,60,0.00,OVC,,0.00,95.2,WeatherDisplay:10.37,2013-08-11 06:42:00,
2013-08-11 08:48:00,67.5,53.1,30.00,NNE,22,4.6,4.6,60,0.00,OVC,,0.00,98.5,WeatherDisplay:10.37,2013-08-11 06:48:00,
2013-08-11 08:53:00,67.8,53.0,29.97,WSW,248,3.5,3.5,59,0.00,OVC,,0.00,101.3,WeatherDisplay:10.37,2013-08-11 06:53:00,
2013-08-11 08:59:00,68.2,52.8,29.97,NNW,338,4.6,4.6,58,0.00,OVC,,0.00,104.0,WeatherDisplay:10.37,2013-08-11 06:59:00,
2013-08-11 09:04:00,68.7,52.9,29.97,NNW,338,5.6,5.6,57,0.00,OVC,,0.00,107.3,WeatherDisplay:10.37,2013-08-11 07:04:00,
2013-08-11 09:10:00,69.1,52.7,29.97,NNW,338,4.6,4.6,56,0.00,OVC,,0.00,110.4,WeatherDisplay:10.37,2013-08-11 07:10:00,
2013-08-11 09:15:00,69.3,52.9,29.97,NNW,338,5.8,5.8,56,0.00,OVC,,0.00,113.2,WeatherDisplay:10.37,2013-08-11 07:15:00,
2013-08-11 09:20:00,69.6,53.2,29.97,NNW,338,4.6,4.6,56,0.00,OVC,,0.00,115.8,WeatherDisplay:10.37,2013-08-11 07:20:00,
2013-08-11 09:25:00,69.8,52.4,30.00,NNW,338,3.5,3.5,54,0.00,OVC,,0.00,118.3,WeatherDisplay:10.37,2013-08-11 07:25:00,
2013-08-11 09:31:00,70.2,53.7,30.00,NNE,22,4.6,4.6,56,0.00,OVC,,0.00,121.4,WeatherDisplay:10.37,2013-08-11 07:31:00,
2013-08-11 09:36:00,70.5,54.1,30.00,NNW,338,3.6,3.6,56,0.00,OVC,,0.00,124.1,WeatherDisplay:10.37,2013-08-11 07:36:00,
2013-08-11 09:41:00,70.9,53.9,30.00,NNW,338,4.6,4.6,55,0.00,OVC,,0.00,126.6,WeatherDisplay:10.37,2013-08-11 07:41:00,
2013-08-11 09:46:00,70.9,53.4,30.00,NNE,22,3.5,3.5,54,0.00,OVC,,0.00,129.0,WeatherDisplay:10.37,2013-08-11 07:46:00,
2013-08-11 09:51:00,70.9,53.9,30.00,North,0,3.5,3.5,55,0.00,OVC,,0.00,131.5,WeatherDisplay:10.37,2013-08-11 07:51:00,
2013-08-11 09:57:00,70.9,53.9,30.00,SSE,158,3.5,3.5,55,0.00,OVC,,0.00,134.3,WeatherDisplay:10.37,2013-08-11 07:57:00,
2013-08-11 10:02:00,71.2,54.7,30.00,WNW,292,3.5,3.5,56,0.00,OVC,,0.00,136.6,WeatherDisplay:10.37,2013-08-11 08:02:00,
2013-08-11 10:07:00,71.6,53.6,30.00,West,270,4.6,4.6,53,0.00,OVC,,0.00,138.9,WeatherDisplay:10.37,2013-08-11 08:07:00,
2013-08-11 10:13:00,71.8,54.2,30.00,WNW,292,3.5,3.5,54,0.00,OVC,,0.00,141.7,WeatherDisplay:10.37,2013-08-11 08:13:00,
2013-08-11 10:18:00,72.1,54.6,30.00,SSE,158,1.2,0.0,54,0.00,OVC,,0.00,143.9,WeatherDisplay:10.37,2013-08-11 08:18:00,
2013-08-11 10:23:00,72.3,54.7,29.97,WSW,248,3.5,3.5,54,0.00,OVC,,0.00,146.0,WeatherDisplay:10.37,2013-08-11 08:23:00,
2013-08-11 10:29:00,72.7,55.1,29.97,North,0,2.4,2.4,54,0.00,OVC,,0.00,148.7,WeatherDisplay:10.37,2013-08-11 08:29:00,
2013-08-11 10:34:00,73.0,55.4,29.97,East,90,4.6,4.6,54,0.00,OVC,,0.00,150.3,WeatherDisplay:10.37,2013-08-11 08:34:00,
2013-08-11 10:39:00,73.2,54.0,29.97,SSW,202,4.6,4.6,51,0.00,OVC,,0.00,152.8,WeatherDisplay:10.37,2013-08-11 08:39:00,
2013-08-11 10:44:00,73.6,54.9,29.97,NNW,338,4.6,4.6,52,0.00,OVC,,0.00,154.6,WeatherDisplay:10.37,2013-08-11 08:44:00,
2013-08-11 10:49:00,73.9,55.2,29.97,NW,315,5.8,5.8,52,0.00,OVC,,0.00,156.6,WeatherDisplay:10.37,2013-08-11 08:49:00,
2013-08-11 10:54:00,74.3,55.5,29.97,WNW,292,5.8,5.8,52,0.00,OVC,,0.00,158.4,WeatherDisplay:10.37,2013-08-11 08:54:00,
2013-08-11 11:00:00,74.5,55.2,29.97,NE,45,3.5,3.5,51,0.00,OVC,,0.00,160.2,WeatherDisplay:10.37,2013-08-11 09:00:00,
2013-08-11 11:05:00,74.7,53.7,29.97,NW,315,3.8,3.8,48,0.00,OVC,,0.00,162.2,WeatherDisplay:10.37,2013-08-11 09:05:00,
2013-08-11 11:10:00,75.0,55.1,29.97,NNW,338,4.6,4.6,50,0.00,OVC,,0.00,164.0,WeatherDisplay:10.37,2013-08-11 09:10:00,
2013-08-11 11:16:00,75.0,53.4,29.97,West,270,5.8,5.8,47,0.00,OVC,,0.00,165.8,WeatherDisplay:10.37,2013-08-11 09:16:00,
2013-08-11 11:21:00,75.6,55.1,29.97,NNW,338,2.3,2.3,49,0.00,OVC,,0.00,167.3,WeatherDisplay:10.37,2013-08-11 09:21:00,
2013-08-11 11:26:00,75.7,54.7,29.97,NW,315,4.6,4.6,48,0.00,OVC,,0.00,168.8,WeatherDisplay:10.37,2013-08-11 09:26:00,
2013-08-11 11:31:00,75.9,54.8,29.97,ENE,68,4.7,4.7,48,0.00,OVC,,0.00,170.3,WeatherDisplay:10.37,2013-08-11 09:31:00,
2013-08-11 11:36:00,76.3,54.0,29.97,NNW,338,3.5,3.5,46,0.00,OVC,,0.00,171.6,WeatherDisplay:10.37,2013-08-11 09:36:00,
2013-08-11 11:42:00,76.5,53.5,29.97,WNW,292,2.3,2.3,45,0.00,OVC,,0.00,173.1,WeatherDisplay:10.37,2013-08-11 09:42:00,
2013-08-11 11:48:00,76.8,54.5,29.97,SSE,158,2.3,3.1,46,0.00,OVC,,0.00,174.2,WeatherDisplay:10.37,2013-08-11 09:48:00,
2013-08-11 11:53:00,77.0,54.6,29.97,ESE,112,3.5,3.5,46,0.00,OVC,,0.00,175.4,WeatherDisplay:10.37,2013-08-11 09:53:00,
2013-08-11 11:58:00,77.0,54.0,29.97,WNW,292,3.5,3.6,45,0.00,OVC,,0.00,176.7,WeatherDisplay:10.37,2013-08-11 09:58:00,
2013-08-11 12:03:00,77.2,54.2,29.97,NW,315,3.5,3.5,45,0.00,OVC,,0.00,177.5,WeatherDisplay:10.37,2013-08-11 10:03:00,
2013-08-11 12:09:00,77.5,53.3,29.94,WSW,248,4.0,4.0,43,0.00,OVC,,0.00,178.5,WeatherDisplay:10.37,2013-08-11 10:09:00,
2013-08-11 12:14:00,77.7,52.8,29.94,NNW,338,4.6,4.6,42,0.00,OVC,,0.00,179.4,WeatherDisplay:10.37,2013-08-11 10:14:00,
2013-08-11 12:19:00,77.9,53.0,29.94,ENE,68,3.3,3.3,42,0.00,OVC,,0.00,180.2,WeatherDisplay:10.37,2013-08-11 10:19:00,
2013-08-11 12:24:00,78.1,52.5,29.94,WSW,248,3.5,3.5,41,0.00,OVC,,0.00,180.8,WeatherDisplay:10.37,2013-08-11 10:24:00,
2013-08-11 12:30:00,78.4,50.0,29.94,SSW,202,4.6,4.6,37,0.00,OVC,,0.00,181.5,WeatherDisplay:10.37,2013-08-11 10:30:00,
2013-08-11 12:35:00,78.8,51.0,29.94,ESE,112,9.2,9.2,38,0.00,OVC,,0.00,182.0,WeatherDisplay:10.37,2013-08-11 10:35:00,
2013-08-11 12:40:00,79.3,49.3,29.94,South,180,5.8,5.8,35,0.00,OVC,,0.00,182.5,WeatherDisplay:10.37,2013-08-11 10:40:00,
2013-08-11 12:46:00,79.3,48.5,29.94,WNW,292,8.1,8.1,34,0.00,OVC,,0.00,182.8,WeatherDisplay:10.37,2013-08-11 10:46:00,
2013-08-11 12:51:00,79.5,47.1,29.94,WNW,292,9.2,9.2,32,0.00,OVC,,0.00,183.2,WeatherDisplay:10.37,2013-08-11 10:51:00,
2013-08-11 12:57:00,79.5,48.7,29.94,NNW,338,6.9,6.9,34,0.00,OVC,,0.00,183.3,WeatherDisplay:10.37,2013-08-11 10:57:00,
2013-08-11 13:02:00,79.7,47.2,29.94,NNW,338,8.1,8.1,32,0.00,OVC,,0.00,183.5,WeatherDisplay:10.37,2013-08-11 11:02:00,
2013-08-11 13:07:00,80.1,48.4,29.91,NNW,338,10.4,10.4,33,0.00,OVC,,0.00,183.5,WeatherDisplay:10.37,2013-08-11 11:07:00,
2013-08-11 13:13:00,80.1,47.5,29.91,WNW,292,8.1,8.1,32,0.00,OVC,,0.00,183.5,WeatherDisplay:10.37,2013-08-11 11:13:00,
2013-08-11 13:18:00,80.6,48.8,29.91,WNW,292,6.9,6.9,33,0.00,OVC,,0.00,183.3,WeatherDisplay:10.37,2013-08-11 11:18:00,
2013-08-11 13:23:00,80.8,47.3,29.97,NNW,338,11.5,11.5,31,0.00,OVC,,0.00,183.0,WeatherDisplay:10.37,2013-08-11 11:23:00,
2013-08-11 13:28:00,81.0,47.5,29.97,WNW,292,8.1,8.1,31,0.00,OVC,,0.00,182.8,WeatherDisplay:10.37,2013-08-11 11:28:00,
2013-08-11 13:33:00,81.3,48.6,29.97,NNW,338,4.6,4.6,32,0.00,OVC,,0.00,182.3,WeatherDisplay:10.37,2013-08-11 11:33:00,
2013-08-11 13:39:00,81.3,47.8,29.97,NNE,22,5.8,5.8,31,0.00,OVC,,0.00,181.8,WeatherDisplay:10.37,2013-08-11 11:39:00,
2013-08-11 13:44:00,81.3,46.9,29.97,NNW,338,12.7,12.7,30,0.00,OVC,,0.00,181.3,WeatherDisplay:10.37,2013-08-11 11:44:00,
2013-08-11 13:49:00,81.3,47.8,29.97,WNW,292,6.9,6.9,31,0.00,OVC,,0.00,180.7,WeatherDisplay:10.37,2013-08-11 11:49:00,
2013-08-11 13:55:00,81.7,48.1,29.94,NNW,338,6.9,6.9,31,0.00,OVC,,0.00,180.0,WeatherDisplay:10.37,2013-08-11 11:55:00,
2013-08-11 14:00:00,82.0,48.4,29.94,WSW,248,6.9,6.9,31,0.00,OVC,,0.00,179.0,WeatherDisplay:10.37,2013-08-11 12:00:00,
2013-08-11 14:05:00,82.0,48.4,29.94,NNW,338,4.6,4.6,31,0.00,OVC,,0.00,178.2,WeatherDisplay:10.37,2013-08-11 12:05:00,
2013-08-11 14:10:00,82.0,47.5,29.94,NNW,338,5.8,5.8,30,0.00,OVC,,0.00,177.4,WeatherDisplay:10.37,2013-08-11 12:10:00,
2013-08-11 14:15:00,82.2,47.7,29.94,North,0,8.1,8.1,30,0.00,OVC,,0.00,176.4,WeatherDisplay:10.37,2013-08-11 12:15:00,
2013-08-11 14:21:00,82.2,47.7,29.94,NNW,338,11.5,11.5,30,0.00,OVC,,0.00,175.4,WeatherDisplay:10.37,2013-08-11 12:21:00,
2013-08-11 14:26:00,82.4,47.8,29.94,NNW,338,5.8,5.8,30,0.00,OVC,,0.00,174.2,WeatherDisplay:10.37,2013-08-11 12:26:00,
2013-08-11 14:31:00,82.8,49.0,29.94,NNW,338,5.8,5.8,31,0.00,OVC,,0.00,173.1,WeatherDisplay:10.37,2013-08-11 12:31:00,
2013-08-11 14:36:00,82.9,48.3,29.91,ENE,68,4.6,4.6,30,0.00,OVC,,0.00,171.8,WeatherDisplay:10.37,2013-08-11 12:36:00,
2013-08-11 14:41:00,82.9,47.4,29.91,NW,315,5.8,5.8,29,0.00,OVC,,0.00,170.4,WeatherDisplay:10.37,2013-08-11 12:41:00,
2013-08-11 14:46:00,83.3,48.6,29.91,NNW,338,8.1,8.1,30,0.00,OVC,,0.00,168.8,WeatherDisplay:10.37,2013-08-11 12:46:00,
2013-08-11 14:52:00,83.5,48.8,29.91,NNE,22,6.2,6.2,30,0.00,OVC,,0.00,167.0,WeatherDisplay:10.37,2013-08-11 12:52:00,
2013-08-11 14:57:00,84.2,48.5,29.91,NNW,338,3.5,3.6,29,0.00,OVC,,0.00,165.5,WeatherDisplay:10.37,2013-08-11 12:57:00,
2013-08-11 15:02:00,85.1,49.3,29.91,NNW,338,6.9,6.9,29,0.00,OVC,,0.00,163.8,WeatherDisplay:10.37,2013-08-11 13:02:00,
2013-08-11 15:07:00,85.8,49.9,29.91,NNW,338,4.6,4.6,29,0.00,OVC,,0.00,162.2,WeatherDisplay:10.37,2013-08-11 13:07:00,
2013-08-11 15:12:00,86.4,50.3,29.91,NNW,338,6.9,6.9,29,0.00,OVC,,0.00,160.4,WeatherDisplay:10.37,2013-08-11 13:12:00,
2013-08-11 15:18:00,87.1,51.0,29.91,WSW,248,5.8,5.8,29,0.00,OVC,,0.00,158.2,WeatherDisplay:10.37,2013-08-11 13:18:00,
2013-08-11 15:23:00,87.1,51.0,29.88,ESE,112,5.8,5.8,29,0.00,OVC,,0.00,156.4,WeatherDisplay:10.37,2013-08-11 13:23:00,
2013-08-11 15:28:00,87.1,51.0,29.88,WNW,292,5.8,5.8,29,0.00,OVC,,0.00,154.6,WeatherDisplay:10.37,2013-08-11 13:28:00,
2013-08-11 15:34:00,86.7,48.7,29.88,West,270,9.2,9.2,27,0.00,OVC,,0.00,152.1,WeatherDisplay:10.37,2013-08-11 13:34:00,
2013-08-11 15:39:00,86.9,49.9,29.88,WNW,292,3.5,3.5,28,0.00,OVC,,0.00,150.5,WeatherDisplay:10.37,2013-08-11 13:39:00,
2013-08-11 15:44:00,86.7,49.7,29.88,NNW,338,10.4,10.4,28,0.00,OVC,,0.00,148.0,WeatherDisplay:10.37,2013-08-11 13:44:00,
2013-08-11 15:49:00,86.9,49.9,29.88,NW,315,5.8,5.8,28,0.00,OVC,,0.00,145.9,WeatherDisplay:10.37,2013-08-11 13:49:00,
2013-08-11 15:54:00,86.9,49.9,29.88,WNW,292,8.1,8.1,28,0.00,OVC,,0.00,143.7,WeatherDisplay:10.37,2013-08-11 13:54:00,
2013-08-11 15:59:00,86.9,49.9,29.88,West,270,6.4,6.4,28,0.00,OVC,,0.00,141.6,WeatherDisplay:10.37,2013-08-11 13:59:00,
2013-08-11 16:05:00,86.7,49.7,29.88,NNW,338,5.8,5.8,28,0.00,OVC,,0.00,139.3,WeatherDisplay:10.37,2013-08-11 14:05:00,
2013-08-11 16:10:00,86.7,49.7,29.88,SW,225,6.9,6.9,28,0.00,OVC,,0.00,136.5,WeatherDisplay:10.37,2013-08-11 14:10:00,
2013-08-11 16:16:00,86.7,49.7,29.88,NNW,338,6.9,6.9,28,0.00,OVC,,0.00,133.7,WeatherDisplay:10.37,2013-08-11 14:16:00,
2013-08-11 16:22:00,86.5,49.6,29.88,WNW,292,6.0,6.0,28,0.00,OVC,,0.00,130.7,WeatherDisplay:10.37,2013-08-11 14:22:00,
2013-08-11 16:28:00,86.9,49.9,29.88,North,0,3.8,3.8,28,0.00,OVC,,0.00,127.9,WeatherDisplay:10.37,2013-08-11 14:28:00,
2013-08-11 16:33:00,86.9,49.9,29.88,WNW,292,9.2,9.2,28,0.00,OVC,,0.00,125.2,WeatherDisplay:10.37,2013-08-11 14:33:00,
2013-08-11 16:38:00,86.5,49.6,29.88,NNW,338,6.9,6.9,28,0.00,OVC,,0.00,122.8,WeatherDisplay:10.37,2013-08-11 14:38:00,
2013-08-11 16:44:00,86.9,49.9,29.88,WNW,292,6.9,6.9,28,0.00,OVC,,0.00,120.3,WeatherDisplay:10.37,2013-08-11 14:44:00,
2013-08-11 16:49:00,87.1,49.0,29.88,WNW,292,7.1,7.1,27,0.00,OVC,,0.00,117.6,WeatherDisplay:10.37,2013-08-11 14:49:00,
2013-08-11 16:54:00,86.7,47.7,29.88,NNW,338,5.4,5.4,26,0.00,OVC,,0.00,114.5,WeatherDisplay:10.37,2013-08-11 14:54:00,
2013-08-11 16:59:00,86.0,46.1,29.88,WNW,292,8.1,8.1,25,0.00,OVC,,0.00,111.9,WeatherDisplay:10.37,2013-08-11 14:59:00,
2013-08-11 17:04:00,85.8,45.9,29.88,NNW,338,4.6,4.6,25,0.00,OVC,,0.00,108.6,WeatherDisplay:10.37,2013-08-11 15:04:00,
2013-08-11 17:09:00,86.0,45.0,29.88,North,0,10.4,10.4,24,0.00,OVC,,0.00,105.9,WeatherDisplay:10.37,2013-08-11 15:09:00,
2013-08-11 17:14:00,86.0,46.1,29.88,WNW,292,4.6,4.6,25,0.00,OVC,,0.00,103.1,WeatherDisplay:10.37,2013-08-11 15:14:00,
2013-08-11 17:20:00,86.0,46.1,29.88,NNW,338,5.8,5.8,25,0.00,OVC,,0.00,99.8,WeatherDisplay:10.37,2013-08-11 15:20:00,
2013-08-11 17:25:00,86.0,46.1,29.88,NW,315,4.6,4.6,25,0.00,OVC,,0.00,97.2,WeatherDisplay:10.37,2013-08-11 15:25:00,
2013-08-11 17:30:00,84.7,43.9,29.88,West,270,5.8,5.8,24,0.00,OVC,,0.00,94.4,WeatherDisplay:10.37,2013-08-11 15:30:00,
2013-08-11 17:35:00,83.8,45.3,29.88,WNW,292,4.6,4.6,26,0.00,OVC,,0.00,91.6,WeatherDisplay:10.37,2013-08-11 15:35:00,
2013-08-11 17:41:00,82.8,44.4,29.88,WNW,292,5.8,5.8,26,0.00,OVC,,0.00,88.1,WeatherDisplay:10.37,2013-08-11 15:41:00,
2013-08-11 17:47:00,82.2,44.9,29.88,NW,315,8.1,8.1,27,0.00,OVC,,0.00,85.3,WeatherDisplay:10.37,2013-08-11 15:47:00,
2013-08-11 17:52:00,81.9,44.6,29.88,NW,315,6.9,6.9,27,0.00,OVC,,0.00,82.5,WeatherDisplay:10.37,2013-08-11 15:52:00,
2013-08-11 17:57:00,81.5,45.2,29.88,NNW,338,6.9,6.9,28,0.00,OVC,,0.00,79.7,WeatherDisplay:10.37,2013-08-11 15:57:00,
2013-08-11 18:02:00,81.1,45.9,29.88,West,270,4.9,4.9,29,0.00,OVC,,0.00,76.2,WeatherDisplay:10.37,2013-08-11 16:02:00,
2013-08-11 18:07:00,81.0,44.8,29.88,NNW,338,8.1,8.1,28,0.00,OVC,,0.00,73.4,WeatherDisplay:10.37,2013-08-11 16:07:00,
2013-08-11 18:12:00,80.6,45.4,29.88,WNW,292,8.1,8.1,29,0.00,OVC,,0.00,70.6,WeatherDisplay:10.37,2013-08-11 16:12:00,
2013-08-11 18:17:00,80.6,45.4,29.88,WSW,248,5.8,5.8,29,0.00,OVC,,0.00,67.8,WeatherDisplay:10.37,2013-08-11 16:17:00,
2013-08-11 18:22:00,80.2,46.0,29.88,WNW,292,5.8,5.9,30,0.00,OVC,,0.00,65.0,WeatherDisplay:10.37,2013-08-11 16:22:00,
2013-08-11 18:28:00,80.1,45.8,29.88,NNW,338,9.2,9.2,30,0.00,OVC,,0.00,62.2,WeatherDisplay:10.37,2013-08-11 16:28:00,
2013-08-11 18:33:00,79.9,45.7,29.88,West,270,5.8,5.8,30,0.00,OVC,,0.00,59.2,WeatherDisplay:10.37,2013-08-11 16:33:00,
2013-08-11 18:38:00,79.9,45.7,29.88,NNW,338,6.9,6.9,30,0.00,OVC,,0.00,55.9,WeatherDisplay:10.37,2013-08-11 16:38:00,
2013-08-11 18:43:00,79.7,45.5,29.88,WNW,292,7.4,7.4,30,0.00,OVC,,0.00,53.1,WeatherDisplay:10.37,2013-08-11 16:43:00,
2013-08-11 18:48:00,79.5,45.4,29.88,WNW,292,5.8,5.8,30,0.00,OVC,,0.00,50.3,WeatherDisplay:10.37,2013-08-11 16:48:00,
2013-08-11 18:53:00,79.3,45.2,29.88,WNW,292,8.1,8.1,30,0.00,OVC,,0.00,47.5,WeatherDisplay:10.37,2013-08-11 16:53:00,
2013-08-11 18:59:00,79.2,45.0,29.88,NNE,22,5.8,5.8,30,0.00,OVC,,0.00,44.7,WeatherDisplay:10.37,2013-08-11 16:59:00,
2013-08-11 19:04:00,79.0,44.9,29.88,NNW,338,8.1,8.1,30,0.00,OVC,,0.00,41.4,WeatherDisplay:10.37,2013-08-11 17:04:00,
2013-08-11 19:09:00,78.8,44.7,29.88,WNW,292,6.9,6.9,30,0.00,OVC,,0.00,38.8,WeatherDisplay:10.37,2013-08-11 17:09:00,
2013-08-11 19:14:00,78.6,44.6,29.88,NNW,338,4.6,4.6,30,0.00,OVC,,0.00,36.0,WeatherDisplay:10.37,2013-08-11 17:14:00,
2013-08-11 19:20:00,78.4,44.4,29.88,NNW,338,5.8,5.8,30,0.00,OVC,,0.00,33.3,WeatherDisplay:10.37,2013-08-11 17:20:00,
2013-08-11 19:25:00,78.3,45.1,29.91,WNW,292,2.6,2.6,31,0.00,OVC,,0.00,30.5,WeatherDisplay:10.37,2013-08-11 17:25:00,
2013-08-11 19:30:00,78.1,45.0,29.91,NNW,338,3.5,3.5,31,0.00,OVC,,0.00,27.9,WeatherDisplay:10.37,2013-08-11 17:30:00,
2013-08-11 19:35:00,77.5,44.5,29.91,NW,315,3.5,3.5,31,0.00,OVC,,0.00,24.8,WeatherDisplay:10.37,2013-08-11 17:35:00,
2013-08-11 19:40:00,77.4,44.4,29.91,NW,315,4.6,4.6,31,0.00,OVC,,0.00,22.1,WeatherDisplay:10.37,2013-08-11 17:40:00,
2013-08-11 19:46:00,77.0,44.0,29.91,WNW,292,2.9,2.9,31,0.00,OVC,,0.00,19.1,WeatherDisplay:10.37,2013-08-11 17:46:00,
2013-08-11 19:51:00,76.5,44.4,29.91,WNW,292,2.6,2.6,32,0.00,OVC,,0.00,16.5,WeatherDisplay:10.37,2013-08-11 17:51:00,
2013-08-11 19:56:00,76.1,44.1,29.91,NNW,338,2.9,2.9,32,0.00,OVC,,0.00,14.0,WeatherDisplay:10.37,2013-08-11 17:56:00,
2013-08-11 20:02:00,75.6,43.6,29.91,NNW,338,3.5,3.5,32,0.00,OVC,,0.00,11.1,WeatherDisplay:10.37,2013-08-11 18:02:00,
2013-08-11 20:07:00,75.2,44.1,29.94,NW,315,2.3,2.3,33,0.00,OVC,,0.00,8.6,WeatherDisplay:10.37,2013-08-11 18:07:00,
2013-08-11 20:12:00,74.7,43.6,29.94,NNW,338,2.3,2.3,33,0.00,OVC,,0.00,6.1,WeatherDisplay:10.37,2013-08-11 18:12:00,
2013-08-11 20:17:00,74.1,43.9,29.94,NNW,338,1.2,1.2,34,0.00,OVC,,0.00,3.6,WeatherDisplay:10.37,2013-08-11 18:17:00,
2013-08-11 20:22:00,73.8,43.6,29.94,NNW,338,2.3,2.3,34,0.00,OVC,,0.00,1.3,WeatherDisplay:10.37,2013-08-11 18:22:00,
2013-08-11 20:27:00,73.4,43.3,29.94,NNW,338,2.3,2.3,34,0.00,OVC,,0.00,0.8,WeatherDisplay:10.37,2013-08-11 18:27:00,
2013-08-11 20:33:00,72.7,43.4,29.94,NNW,338,2.3,2.3,35,0.00,CLR,,0.00,0.0,WeatherDisplay:10.37,2013-08-11 18:33:00,
2013-08-11 20:38:00,72.3,43.9,29.94,NW,315,2.4,2.4,36,0.00,CLR,,0.00,0.0,WeatherDisplay:10.37,2013-08-11 18:38:00,
2013-08-11 20:44:00,71.8,43.4,29.94,NNW,338,2.6,2.6,36,0.00,CLR,,0.00,0.0,WeatherDisplay:10.37,2013-08-11 18:44:00,
2013-08-11 20:49:00,71.4,43.8,29.94,NNW,338,2.9,2.9,37,0.00,CLR,,0.00,0.0,WeatherDisplay:10.37,2013-08-11 18:49:00,
2013-08-11 20:54:00,71.1,43.5,29.91,NW,315,2.4,2.4,37,0.00,CLR,,0.00,0.0,WeatherDisplay:10.37,2013-08-11 18:54:00,
2013-08-11 20:59:00,70.7,43.1,29.91,NW,315,2.9,2.9,37,0.00,CLR,,0.00,0.0,WeatherDisplay:10.37,2013-08-11 18:59:00,
2013-08-11 21:04:00,70.5,43.7,29.91,NW,315,3.5,3.5,38,0.00,CLR,,0.00,0.0,WeatherDisplay:10.37,2013-08-11 19:04:00,
2013-08-11 21:09:00,70.5,43.7,29.94,NNW,338,3.5,3.5,38,0.00,CLR,,0.00,0.0,WeatherDisplay:10.37,2013-08-11 19:09:00,
2013-08-11 21:14:00,70.3,43.5,29.94,NW,315,3.5,3.5,38,0.00,CLR,,0.00,0.0,WeatherDisplay:10.37,2013-08-11 19:14:00,
2013-08-11 21:19:00,70.2,43.4,29.94,WNW,292,2.3,2.3,38,0.00,CLR,,0.00,0.0,WeatherDisplay:10.37,2013-08-11 19:19:00,
2013-08-11 21:25:00,70.0,43.2,29.94,NNW,338,2.3,2.3,38,0.00,CLR,,0.00,0.0,WeatherDisplay:10.37,2013-08-11 19:25:00,
2013-08-11 21:30:00,69.8,43.7,29.94,NNW,338,2.3,2.3,39,0.00,CLR,,0.00,0.0,WeatherDisplay:10.37,2013-08-11 19:30:00,
2013-08-11 21:36:00,69.6,43.6,29.94,NNW,338,2.3,2.3,39,0.00,CLR,,0.00,0.0,WeatherDisplay:10.37,2013-08-11 19:36:00,
2013-08-11 21:41:00,69.4,44.1,29.94,NNW,338,2.4,2.4,40,0.00,CLR,,0.00,0.0,WeatherDisplay:10.37,2013-08-11 19:41:00,
2013-08-11 21:46:00,69.3,43.9,29.94,NNW,338,3.5,3.5,40,0.00,CLR,,0.00,0.0,WeatherDisplay:10.37,2013-08-11 19:46:00,
2013-08-11 21:51:00,69.3,43.9,29.94,NW,315,2.4,2.4,40,0.00,CLR,,0.00,0.0,WeatherDisplay:10.37,2013-08-11 19:51:00,
2013-08-11 21:56:00,69.1,44.4,29.94,NNW,338,2.6,2.6,41,0.00,CLR,,0.00,0.0,WeatherDisplay:10.37,2013-08-11 19:56:00,
2013-08-11 22:01:00,68.9,44.2,29.94,NNW,338,3.5,3.5,41,0.00,CLR,,0.00,0.0,WeatherDisplay:10.37,2013-08-11 20:01:00,
2013-08-11 22:06:00,68.7,44.1,29.94,NNW,338,3.5,3.5,41,0.00,CLR,,0.00,0.0,WeatherDisplay:10.37,2013-08-11 20:06:00,
2013-08-11 22:12:00,68.5,44.5,29.94,NW,315,2.6,2.6,42,0.00,CLR,,0.00,0.0,WeatherDisplay:10.37,2013-08-11 20:12:00,
2013-08-11 22:17:00,68.4,44.4,29.94,NNW,338,3.5,3.5,42,0.00,CLR,,0.00,0.0,WeatherDisplay:10.37,2013-08-11 20:17:00,
2013-08-11 22:22:00,68.2,44.8,29.97,NNW,338,2.6,2.6,43,0.00,CLR,,0.00,0.0,WeatherDisplay:10.37,2013-08-11 20:22:00,
2013-08-11 22:28:00,68.0,44.7,29.97,WNW,292,2.3,2.3,43,0.00,CLR,,0.00,0.0,WeatherDisplay:10.37,2013-08-11 20:28:00,
2013-08-11 22:33:00,68.0,44.7,29.97,NW,315,2.9,2.9,43,0.00,CLR,,0.00,0.0,WeatherDisplay:10.37,2013-08-11 20:33:00,
2013-08-11 22:38:00,67.8,44.5,29.97,NNW,338,2.3,2.3,43,0.00,CLR,,0.00,0.0,WeatherDisplay:10.37,2013-08-11 20:38:00,
2013-08-11 22:44:00,67.6,44.9,29.97,NNW,338,2.4,2.4,44,0.00,CLR,,0.00,0.0,WeatherDisplay:10.37,2013-08-11 20:44:00,
2013-08-11 22:49:00,67.5,44.8,29.97,NNW,338,2.3,2.3,44,0.00,CLR,,0.00,0.0,WeatherDisplay:10.37,2013-08-11 20:49:00,
2013-08-11 22:54:00,67.5,44.8,29.97,NW,315,0.0,0.0,44,0.00,CLR,,0.00,0.0,WeatherDisplay:10.37,2013-08-11 20:54:00,
2013-08-11 22:59:00,67.3,44.6,29.97,NNW,338,2.3,2.3,44,0.00,CLR,,0.00,0.0,WeatherDisplay:10.37,2013-08-11 20:59:00,
2013-08-11 23:04:00,67.1,45.0,29.97,NNW,338,1.2,1.2,45,0.00,CLR,,0.00,0.0,WeatherDisplay:10.37,2013-08-11 21:04:00,
2013-08-11 23:09:00,66.7,44.7,29.97,NNW,338,0.0,0.0,45,0.00,CLR,,0.00,0.0,WeatherDisplay:10.37,2013-08-11 21:09:00,
2013-08-11 23:15:00,66.6,44.5,29.97,NW,315,2.3,2.3,45,0.00,CLR,,0.00,0.0,WeatherDisplay:10.37,2013-08-11 21:15:00,
2013-08-11 23:20:00,66.4,44.4,29.97,NW,315,1.2,1.2,45,0.00,CLR,,0.00,0.0,WeatherDisplay:10.37,2013-08-11 21:20:00,
2013-08-11 23:25:00,66.4,45.0,29.97,NW,315,2.3,2.3,46,0.00,CLR,,0.00,0.0,WeatherDisplay:10.37,2013-08-11 21:25:00,
2013-08-11 23:30:00,66.2,44.8,29.97,WNW,292,2.3,2.3,46,0.00,CLR,,0.00,0.0,WeatherDisplay:10.37,2013-08-11 21:30:00,
2013-08-11 23:35:00,66.2,45.4,29.97,NNW,338,2.9,2.9,47,0.00,CLR,,0.00,0.0,WeatherDisplay:10.37,2013-08-11 21:35:00,
2013-08-11 23:41:00,66.4,45.5,29.97,NNW,338,2.6,2.6,47,0.00,CLR,,0.00,0.0,WeatherDisplay:10.37,2013-08-11 21:41:00,
2013-08-11 23:46:00,66.6,45.7,29.97,NNW,338,2.4,2.4,47,0.00,CLR,,0.00,0.0,WeatherDisplay:10.37,2013-08-11 21:46:00,
2013-08-11 23:51:00,66.7,45.9,29.97,NNW,338,2.4,2.4,47,0.00,CLR,,0.00,0.0,WeatherDisplay:10.37,2013-08-11 21:51:00,
2013-08-11 23:56:00,66.9,46.0,29.97,NW,315,3.5,3.5,47,0.00,CLR,,0.00,0.0,WeatherDisplay:10.37,2013-08-11 21:56:00,